createdAt,value
2022-12-22T00:02:37.003Z,96715.31
2022-12-22T00:05:31.614Z,96715.88
2022-12-22T00:08:17.207Z,96711.50
2022-12-22T00:11:06.155Z,96714.66
2022-12-22T00:13:52.214Z,96697.34
2022-12-22T00:16:38.955Z,96690.66
2022-12-22T00:19:30.602Z,96688.84
2022-12-22T00:22:16.973Z,96668.41
2022-12-22T00:25:02.395Z,96673.75
2022-12-22T00:27:48.738Z,96670.06
2022-12-22T00:30:34.593Z,96673.47
2022-12-22T00:33:23.387Z,96686.00
2022-12-22T00:36:09.452Z,96674.72
2022-12-22T00:38:54.664Z,96682.16
2022-12-22T00:41:40.485Z,96672.13
2022-12-22T00:44:25.548Z,96668.97
2022-12-22T00:47:10.988Z,96661.84
2022-12-22T00:50:00.042Z,96655.38
2022-12-22T00:52:45.484Z,96657.97
2022-12-22T00:55:32.532Z,96649.19
2022-12-22T00:58:18.023Z,96654.69
2022-12-22T01:01:03.365Z,96651.69
2022-12-22T01:03:48.805Z,96653.31
2022-12-22T01:06:35.272Z,96651.22
2022-12-22T01:09:20.821Z,96646.97
2022-12-22T01:12:06.335Z,96641.34
2022-12-22T01:14:51.612Z,96641.34
2022-12-22T01:17:37.141Z,96627.91
2022-12-22T01:20:22.888Z,96635.44
2022-12-22T01:23:09.618Z,96627.22
2022-12-22T01:25:55.100Z,96623.75
2022-12-22T01:28:40.781Z,96622.13
2022-12-22T01:31:35.025Z,96625.56
2022-12-22T01:34:20.541Z,96629.28
2022-12-22T01:37:05.895Z,96629.69
2022-12-22T01:39:52.612Z,96634.22
2022-12-22T01:42:37.903Z,96636.53
2022-12-22T01:45:37.876Z,96618.16
2022-12-22T01:48:23.215Z,96620.75
2022-12-22T01:51:08.680Z,96609.66
2022-12-22T01:53:54.056Z,96600.72
2022-12-22T01:56:40.663Z,96603.06
2022-12-22T01:59:26.127Z,96593.72
2022-12-22T02:02:11.355Z,96593.03
2022-12-22T02:04:58.683Z,96585.09
2022-12-22T02:07:56.392Z,96583.97
2022-12-22T02:10:55.934Z,96577.38
2022-12-22T02:13:49.056Z,96568.19
2022-12-22T02:16:39.365Z,96568.44
2022-12-22T02:19:30.534Z,96574.91
2022-12-22T02:22:20.254Z,96573.41
2022-12-22T02:25:09.140Z,96562.53
2022-12-22T02:27:58.372Z,96563.22
2022-12-22T02:30:44.976Z,96565.59
2022-12-22T02:33:31.295Z,96567.91
2022-12-22T02:36:21.732Z,96567.63
2022-12-22T02:39:13.543Z,96564.34
2022-12-22T02:42:08.985Z,96553.47
2022-12-22T02:45:02.942Z,96569.13
2022-12-22T02:47:52.686Z,96565.84
2022-12-22T02:50:41.126Z,96567.22
2022-12-22T02:53:27.466Z,96549.94
2022-12-22T02:56:18.149Z,96557.19
2022-12-22T02:59:03.247Z,96558.31
2022-12-22T03:01:50.476Z,96565.31
2022-12-22T03:04:35.708Z,96562.56
2022-12-22T03:07:20.995Z,96569.00
2022-12-22T03:10:06.464Z,96559.97
2022-12-22T03:12:51.678Z,96558.16
2022-12-22T03:15:37.260Z,96551.72
2022-12-22T03:18:24.973Z,96557.47
2022-12-22T03:21:10.286Z,96549.78
2022-12-22T03:23:55.559Z,96546.91
2022-12-22T03:26:23.213Z,96535.66
2022-12-22T03:28:50.865Z,96527.00
2022-12-22T03:31:18.484Z,96525.75
2022-12-22T03:33:47.398Z,96510.38
2022-12-22T03:36:14.948Z,96510.94
2022-12-22T03:38:42.444Z,96510.09
2022-12-22T03:41:29.992Z,96511.75
2022-12-22T03:44:17.593Z,96501.31
2022-12-22T03:46:45.266Z,96500.50
2022-12-22T03:49:14.206Z,96509.00
2022-12-22T03:51:43.779Z,96504.75
2022-12-22T03:54:12.476Z,96507.66
2022-12-22T03:56:40.313Z,96498.84
2022-12-22T03:59:08.210Z,96492.13
2022-12-22T04:01:39.364Z,96498.03
2022-12-22T04:04:06.968Z,96505.44
2022-12-22T04:06:35.887Z,96494.59
2022-12-22T04:09:04.315Z,96492.78
2022-12-22T04:11:49.803Z,96502.13
2022-12-22T04:14:17.436Z,96493.19
2022-12-22T04:16:45.286Z,96490.56
2022-12-22T04:19:12.866Z,96487.97
2022-12-22T04:21:41.797Z,96490.28
2022-12-22T04:24:09.771Z,96478.22
2022-12-22T04:26:37.361Z,96472.88
2022-12-22T04:29:04.898Z,96488.22
2022-12-22T04:31:32.521Z,96484.94
2022-12-22T04:34:00.240Z,96488.63
2022-12-22T04:36:28.016Z,96478.06
2022-12-22T04:38:56.937Z,96490.44
2022-12-22T04:41:24.479Z,96465.69
2022-12-22T04:43:51.993Z,96478.28
2022-12-22T04:46:19.649Z,96475.00
2022-12-22T04:48:47.154Z,96474.03
2022-12-22T04:51:14.722Z,96464.16
2022-12-22T04:53:42.239Z,96472.09
2022-12-22T04:56:11.105Z,96468.00
2022-12-22T04:58:38.636Z,96452.06
2022-12-22T05:01:10.966Z,96464.94
2022-12-22T05:03:38.633Z,96442.31
2022-12-22T05:06:06.801Z,96436.66
2022-12-22T05:08:34.493Z,96436.50
2022-12-22T05:11:02.866Z,96436.22
2022-12-22T05:13:32.630Z,96430.97
2022-12-22T05:16:05.096Z,96419.72
2022-12-22T05:18:32.881Z,96426.00
2022-12-22T05:21:03.630Z,96429.31
2022-12-22T05:23:31.167Z,96430.09
2022-12-22T05:25:58.724Z,96434.91
2022-12-22T05:28:26.330Z,96417.00
2022-12-22T05:30:56.167Z,96421.44
2022-12-22T05:33:23.765Z,96425.00
2022-12-22T05:35:51.303Z,96417.97
2022-12-22T05:38:18.843Z,96414.41
2022-12-22T05:40:46.352Z,96415.75
2022-12-22T05:43:13.874Z,96415.31
2022-12-22T05:45:41.504Z,96403.59
2022-12-22T05:48:10.413Z,96405.25
2022-12-22T05:50:38.002Z,96392.34
2022-12-22T05:53:06.310Z,96407.72
2022-12-22T05:55:34.557Z,96401.53
2022-12-22T05:58:02.750Z,96393.03
2022-12-22T06:00:31.521Z,96390.91
2022-12-22T06:02:59.517Z,96377.63
2022-12-22T06:05:28.751Z,96386.16
2022-12-22T06:07:56.298Z,96387.84
2022-12-22T06:10:23.987Z,96398.69
2022-12-22T06:12:51.485Z,96385.56
2022-12-22T06:15:19.271Z,96392.44
2022-12-22T06:17:46.768Z,96395.91
2022-12-22T06:20:15.277Z,96394.97
2022-12-22T06:22:44.178Z,96395.41
2022-12-22T06:25:17.718Z,96411.41
2022-12-22T06:27:46.593Z,96411.22
2022-12-22T06:30:14.739Z,96417.78
2022-12-22T06:32:42.262Z,96405.41
2022-12-22T06:35:10.653Z,96402.78
2022-12-22T06:37:38.256Z,96401.84
2022-12-22T06:40:08.943Z,96408.72
2022-12-22T06:42:54.199Z,96416.09
2022-12-22T06:45:21.899Z,96409.50
2022-12-22T06:47:49.512Z,96405.38
2022-12-22T06:50:17.087Z,96417.88
2022-12-22T06:52:44.763Z,96419.53
2022-12-22T06:55:13.687Z,96413.53
2022-12-22T06:57:41.234Z,96404.69
2022-12-22T07:00:10.033Z,96411.97
2022-12-22T07:02:37.741Z,96420.53
2022-12-22T07:05:05.927Z,96423.28
2022-12-22T07:07:33.495Z,96412.81
2022-12-22T07:10:01.061Z,96405.34
2022-12-22T07:12:29.949Z,96416.63
2022-12-22T07:14:57.454Z,96406.97
2022-12-22T07:17:25.100Z,96408.13
2022-12-22T07:19:52.677Z,96407.16
2022-12-22T07:22:25.654Z,96405.34
2022-12-22T07:24:57.024Z,96402.38
2022-12-22T07:27:24.534Z,96404.47
2022-12-22T07:29:53.392Z,96392.53
2022-12-22T07:32:20.958Z,96398.59
2022-12-22T07:34:48.500Z,96398.59
2022-12-22T07:37:16.000Z,96392.53
2022-12-22T07:39:43.558Z,96392.22
2022-12-22T07:42:26.820Z,96386.31
2022-12-22T07:44:55.703Z,96382.28
2022-12-22T07:47:23.242Z,96388.97
2022-12-22T07:50:08.503Z,96381.13
2022-12-22T07:52:36.054Z,96380.16
2022-12-22T07:55:03.554Z,96373.16
2022-12-22T07:57:31.062Z,96375.31
2022-12-22T07:59:59.941Z,96369.25
2022-12-22T08:02:29.084Z,96364.84
2022-12-22T08:04:59.862Z,96366.00
2022-12-22T08:07:27.661Z,96351.50
2022-12-22T08:09:55.167Z,96360.16
2022-12-22T08:12:22.725Z,96345.13
2022-12-22T08:14:50.231Z,96339.53
2022-12-22T08:17:19.059Z,96356.09
2022-12-22T08:19:48.578Z,96350.72
2022-12-22T08:22:16.124Z,96360.88
2022-12-22T08:24:43.626Z,96358.75
2022-12-22T08:27:14.127Z,96362.25
2022-12-22T08:29:44.739Z,96367.16
2022-12-22T08:32:13.431Z,96362.91
2022-12-22T08:34:42.531Z,96361.16
2022-12-22T08:37:13.438Z,96370.31
2022-12-22T08:39:41.559Z,96369.53
2022-12-22T08:42:10.777Z,96355.75
2022-12-22T08:44:38.914Z,96363.47
2022-12-22T08:47:11.477Z,96357.25
2022-12-22T08:49:43.781Z,96358.91
2022-12-22T08:52:17.860Z,96368.09
2022-12-22T08:54:46.134Z,96368.94
2022-12-22T08:57:13.640Z,96367.00
2022-12-22T08:59:41.166Z,96371.97
2022-12-22T09:02:08.738Z,96369.50
2022-12-22T09:04:37.747Z,96360.66
2022-12-22T09:07:06.614Z,96362.16
2022-12-22T09:09:35.368Z,96363.28
2022-12-22T09:12:04.129Z,96364.91
2022-12-22T09:14:32.693Z,96367.72
2022-12-22T09:17:00.605Z,96361.69
2022-12-22T09:19:28.438Z,96351.00
2022-12-22T09:21:56.067Z,96358.53
2022-12-22T09:24:25.125Z,96354.94
2022-12-22T09:26:52.634Z,96357.56
2022-12-22T09:29:20.305Z,96363.31
2022-12-22T09:31:47.881Z,96362.50
2022-12-22T09:34:18.450Z,96362.53
2022-12-22T09:36:46.742Z,96353.66
2022-12-22T09:39:14.871Z,96348.75
2022-12-22T09:41:46.441Z,96350.38
2022-12-22T09:44:17.750Z,96342.84
2022-12-22T09:46:45.318Z,96342.50
2022-12-22T09:49:15.180Z,96338.75
2022-12-22T09:51:45.303Z,96340.72
2022-12-22T09:54:13.723Z,96324.16
2022-12-22T09:56:41.395Z,96323.31
2022-12-22T09:59:12.554Z,96325.78
2022-12-22T10:01:48.676Z,96315.44
2022-12-22T10:04:23.883Z,96297.38
2022-12-22T10:06:57.547Z,96307.03
2022-12-22T10:09:48.829Z,96319.44
2022-12-22T10:12:17.786Z,96315.09
2022-12-22T10:14:48.150Z,96313.09
2022-12-22T10:17:17.326Z,96316.81
2022-12-22T10:19:45.469Z,96312.66
2022-12-22T10:22:22.945Z,96303.22
2022-12-22T10:24:50.528Z,96307.28
2022-12-22T10:27:19.551Z,96297.34
2022-12-22T10:29:50.999Z,96296.41
2022-12-22T10:32:21.069Z,96291.28
2022-12-22T10:35:00.652Z,96295.97
2022-12-22T10:37:33.260Z,96295.88
2022-12-22T10:40:00.980Z,96294.22
2022-12-22T10:42:28.521Z,96297.47
2022-12-22T10:44:59.011Z,96300.81
2022-12-22T10:47:26.637Z,96293.38
2022-12-22T10:52:30.050Z,96294.66
2022-12-22T10:55:16.697Z,96290.22
2022-12-22T10:57:44.236Z,96283.13
2022-12-22T11:00:27.340Z,96284.81
2022-12-22T11:02:56.509Z,96283.25
2022-12-22T11:05:24.148Z,96285.38
2022-12-22T11:07:51.761Z,96278.41
2022-12-22T11:10:24.244Z,96285.28
2022-12-22T11:13:02.450Z,96288.22
2022-12-22T11:15:35.859Z,96272.69
2022-12-22T11:18:13.413Z,96277.56
2022-12-22T11:20:48.290Z,96278.13
2022-12-22T11:23:19.145Z,96264.84
2022-12-22T11:25:52.915Z,96265.00
2022-12-22T11:28:34.428Z,96255.19
2022-12-22T11:31:14.101Z,96255.19
2022-12-22T11:33:52.083Z,96245.31
2022-12-22T11:36:28.846Z,96264.72
2022-12-22T11:39:01.293Z,96253.47
2022-12-22T11:41:39.747Z,96246.66
2022-12-22T11:44:19.217Z,96239.03
2022-12-22T11:46:52.006Z,96238.38
2022-12-22T11:49:32.589Z,96236.31
2022-12-22T11:52:11.260Z,96228.84
2022-12-22T11:54:50.137Z,96232.56
2022-12-22T11:57:25.461Z,96230.69
2022-12-22T11:59:59.648Z,96236.94
2022-12-22T12:02:46.000Z,96231.09
2022-12-22T12:05:28.049Z,96239.25
2022-12-22T12:07:59.165Z,96229.03
2022-12-22T12:10:29.222Z,96237.59
2022-12-22T12:13:04.532Z,96224.78
2022-12-22T12:15:34.199Z,96220.50
2022-12-22T12:18:23.700Z,96221.59
2022-12-22T12:20:59.455Z,96218.31
2022-12-22T12:23:40.551Z,96229.28
2022-12-22T12:26:12.165Z,96226.09
2022-12-22T12:28:48.963Z,96216.75
2022-12-22T12:31:24.304Z,96211.22
2022-12-22T12:33:59.169Z,96218.25
2022-12-22T12:36:32.193Z,96215.38
2022-12-22T12:39:08.390Z,96214.53
2022-12-22T12:41:54.221Z,96216.63
2022-12-22T12:44:25.483Z,96217.25
2022-12-22T12:47:16.031Z,96212.09
2022-12-22T12:49:55.972Z,96222.63
2022-12-22T12:53:09.505Z,96219.38
2022-12-22T12:55:53.008Z,96215.19
2022-12-22T12:58:48.412Z,96226.47
2022-12-22T13:01:55.625Z,96214.25
2022-12-22T13:05:16.003Z,96222.22
2022-12-22T13:08:16.607Z,96235.50
2022-12-22T13:10:47.108Z,96233.31
2022-12-22T13:13:47.747Z,96245.66
2022-12-22T13:16:37.846Z,96258.38
2022-12-22T13:19:12.535Z,96260.09
2022-12-22T13:21:52.954Z,96275.41
2022-12-22T13:27:14.073Z,96265.13
2022-12-22T13:29:44.249Z,96268.94
2022-12-22T13:30:51.032Z,96269.38
2022-12-22T13:32:20.517Z,96266.47
2022-12-22T13:35:28.901Z,96266.47
2022-12-22T13:37:42.427Z,96270.38
2022-12-22T13:40:18.805Z,96271.66
2022-12-22T13:42:48.480Z,96280.03
2022-12-22T13:45:30.252Z,96279.56
2022-12-22T13:47:58.445Z,96278.75
2022-12-22T13:50:27.668Z,96280.38
2022-12-22T13:52:56.766Z,96278.41
2022-12-22T13:55:27.288Z,96278.22
2022-12-22T13:57:58.714Z,96277.88
2022-12-22T14:00:27.500Z,96279.88
2022-12-22T14:02:55.181Z,96279.88
2022-12-22T14:05:22.953Z,96279.56
2022-12-22T14:08:03.504Z,96269.75
2022-12-22T14:10:35.135Z,96280.09
2022-12-22T14:13:06.968Z,96278.91
2022-12-22T14:15:34.793Z,96270.59
2022-12-22T14:18:02.447Z,96284.53
2022-12-22T14:20:35.661Z,96290.16
2022-12-22T14:23:07.301Z,96288.16
2022-12-22T14:25:38.108Z,96285.09
2022-12-22T14:28:08.096Z,96298.03
2022-12-22T14:30:38.885Z,96296.41
2022-12-22T14:33:18.438Z,96298.41
2022-12-22T14:35:46.055Z,96306.28
2022-12-22T14:38:24.356Z,96304.50
2022-12-22T14:40:57.336Z,96301.88
2022-12-22T14:43:30.483Z,96310.56
2022-12-22T14:46:07.014Z,96316.81
2022-12-22T14:48:36.348Z,96314.19
2022-12-22T14:51:04.608Z,96310.63
2022-12-22T14:53:38.815Z,96316.88
2022-12-22T14:56:11.783Z,96321.78
2022-12-22T14:58:41.806Z,96326.06
2022-12-22T15:01:16.741Z,96321.63
2022-12-22T15:03:44.884Z,96334.88
2022-12-22T15:06:34.179Z,96336.50
2022-12-22T15:10:04.223Z,96344.03
2022-12-22T15:12:17.993Z,96335.50
2022-12-22T15:14:47.700Z,96341.38
2022-12-22T15:17:21.030Z,96336.09
2022-12-22T15:19:48.746Z,96344.31
2022-12-22T15:22:16.275Z,96355.31
2022-12-22T15:24:43.892Z,96355.97
2022-12-22T15:27:11.446Z,96361.34
2022-12-22T15:29:40.337Z,96358.16
2022-12-22T15:32:11.757Z,96365.06
2022-12-22T15:34:39.456Z,96368.28
2022-12-22T15:37:07.244Z,96351.41
2022-12-22T15:39:34.874Z,96374.25
2022-12-22T15:42:02.850Z,96376.75
2022-12-22T15:44:36.810Z,96379.38
2022-12-22T15:47:09.305Z,96369.59
2022-12-22T15:49:37.032Z,96377.53
2022-12-22T15:52:05.194Z,96385.75
2022-12-22T15:54:33.781Z,96390.38
2022-12-22T15:57:01.835Z,96390.66
2022-12-22T15:59:30.210Z,96392.28
2022-12-22T16:02:01.765Z,96393.28
2022-12-22T16:04:31.186Z,96394.91
2022-12-22T16:07:00.575Z,96390.66
2022-12-22T16:09:32.525Z,96395.63
2022-12-22T16:12:00.194Z,96398.59
2022-12-22T16:14:29.291Z,96408.78
2022-12-22T16:16:58.757Z,96410.13
2022-12-22T16:19:26.280Z,96424.03
2022-12-22T16:21:55.171Z,96412.25
2022-12-22T16:24:27.777Z,96421.88
2022-12-22T16:26:57.758Z,96413.69
2022-12-22T16:29:25.909Z,96417.97
2022-12-22T16:31:54.019Z,96423.88
2022-12-22T16:34:21.565Z,96421.88
2022-12-22T16:36:49.094Z,96429.94
2022-12-22T16:39:17.927Z,96434.41
2022-12-22T16:41:45.638Z,96434.56
2022-12-22T16:47:06.611Z,96450.19
2022-12-22T16:49:34.165Z,96448.09
2022-12-22T16:52:01.794Z,96440.06
2022-12-22T16:54:30.674Z,96451.56
2022-12-22T16:56:58.307Z,96452.91
2022-12-22T16:59:25.860Z,96457.69
2022-12-22T17:01:54.712Z,96465.88
2022-12-22T17:04:24.386Z,96466.88
2022-12-22T17:06:53.235Z,96479.38
2022-12-22T17:09:24.313Z,96483.13
2022-12-22T17:11:54.695Z,96473.97
2022-12-22T17:14:29.252Z,96485.41
2022-12-22T17:16:56.826Z,96482.94
2022-12-22T17:19:24.373Z,96484.59
2022-12-22T17:21:53.989Z,96477.69
2022-12-22T17:24:27.852Z,96479.31
2022-12-22T17:26:57.763Z,96476.69
2022-12-22T17:29:25.630Z,96489.22
2022-12-22T17:31:56.498Z,96481.88
2022-12-22T17:34:24.517Z,96474.63
2022-12-22T17:36:52.602Z,96476.72
2022-12-22T17:39:22.168Z,96477.44
2022-12-22T17:41:56.315Z,96486.50
2022-12-22T17:44:27.891Z,96481.31
2022-12-22T17:46:55.662Z,96473.97
2022-12-22T17:49:23.224Z,96476.63
2022-12-22T17:51:50.986Z,96471.91
2022-12-22T17:54:27.197Z,96473.72
2022-12-22T17:56:57.405Z,96474.53
2022-12-22T17:59:26.284Z,96475.06
2022-12-22T18:01:54.462Z,96476.53
2022-12-22T18:04:22.070Z,96464.72
2022-12-22T18:06:49.827Z,96465.88
2022-12-22T18:09:21.099Z,96460.97
2022-12-22T18:11:49.241Z,96463.59
2022-12-22T18:14:17.023Z,96472.19
2022-12-22T18:16:45.983Z,96467.22
2022-12-22T18:19:13.656Z,96468.56
2022-12-22T18:21:41.173Z,96470.56
2022-12-22T18:24:11.225Z,96465.31
2022-12-22T18:26:38.806Z,96470.56
2022-12-22T18:29:06.346Z,96476.81
2022-12-22T18:31:34.222Z,96477.81
2022-12-22T18:34:03.154Z,96471.72
2022-12-22T18:36:32.527Z,96475.84
2022-12-22T18:39:00.716Z,96474.22
2022-12-22T18:41:30.955Z,96479.47
2022-12-22T18:43:58.535Z,96472.28
2022-12-22T18:46:26.209Z,96480.00
2022-12-22T18:48:54.165Z,96479.19
2022-12-22T18:51:25.675Z,96480.19
2022-12-22T18:53:54.692Z,96476.75
2022-12-22T18:56:22.257Z,96479.53
2022-12-22T18:58:49.981Z,96485.44
2022-12-22T19:01:20.215Z,96478.72
2022-12-22T19:03:48.222Z,96472.19
2022-12-22T19:06:17.229Z,96472.97
2022-12-22T19:08:47.218Z,96468.56
2022-12-22T19:11:16.436Z,96462.31
2022-12-22T19:13:45.759Z,96467.03
2022-12-22T19:16:15.057Z,96461.16
2022-12-22T19:18:42.876Z,96468.22
2022-12-22T19:21:13.238Z,96461.84
2022-12-22T19:23:40.922Z,96456.28
2022-12-22T19:26:17.398Z,96466.50
2022-12-22T19:28:45.361Z,96460.75
2022-12-22T19:31:21.895Z,96469.44
2022-12-22T19:33:50.454Z,96466.06
2022-12-22T19:36:19.544Z,96471.47
2022-12-22T19:38:50.440Z,96471.47
2022-12-22T19:41:30.480Z,96467.19
2022-12-22T19:43:58.249Z,96457.53
2022-12-22T19:46:27.108Z,96457.88
2022-12-22T19:48:56.444Z,96441.59
2022-12-22T19:51:24.065Z,96436.03
2022-12-22T19:53:51.616Z,96439.81
2022-12-22T19:56:24.629Z,96434.91
2022-12-22T19:58:52.571Z,96441.16
2022-12-22T20:01:20.232Z,96439.72
2022-12-22T20:03:47.988Z,96422.94
2022-12-22T20:06:17.543Z,96432.63
2022-12-22T20:08:48.784Z,96435.44
2022-12-22T20:11:18.459Z,96431.97
2022-12-22T20:13:47.988Z,96432.16
2022-12-22T20:16:16.951Z,96419.69
2022-12-22T20:18:46.466Z,96415.47
2022-12-22T20:21:15.500Z,96421.88
2022-12-22T20:23:43.274Z,96423.88
2022-12-22T20:26:15.563Z,96416.63
2022-12-22T20:28:43.144Z,96412.72
2022-12-22T20:31:14.687Z,96399.75
2022-12-22T20:33:42.351Z,96396.00
2022-12-22T20:36:17.831Z,96400.28
2022-12-22T20:38:45.630Z,96397.34
2022-12-22T20:41:13.179Z,96402.59
2022-12-22T20:43:41.775Z,96394.72
2022-12-22T20:46:15.271Z,96384.72
2022-12-22T20:48:44.813Z,96389.63
2022-12-22T20:51:15.568Z,96385.56
2022-12-22T20:53:44.008Z,96386.03
2022-12-22T20:56:23.123Z,96383.91
2022-12-22T20:58:50.767Z,96380.31
2022-12-22T21:01:20.061Z,96378.97
2022-12-22T21:03:47.762Z,96385.22
2022-12-22T21:06:26.347Z,96382.13
2022-12-22T21:08:55.126Z,96378.19
2022-12-22T21:11:23.021Z,96379.69
2022-12-22T21:13:50.613Z,96384.59
2022-12-22T21:16:23.095Z,96384.59
2022-12-22T21:18:51.535Z,96372.63
2022-12-22T21:21:19.256Z,96374.91
2022-12-22T21:23:46.812Z,96362.97
2022-12-22T21:26:20.750Z,96369.50
2022-12-22T21:28:48.284Z,96363.94
2022-12-22T21:31:15.900Z,96368.84
2022-12-22T21:33:45.363Z,96364.25
2022-12-22T21:36:18.894Z,96349.31
2022-12-22T21:38:47.395Z,96351.63
2022-12-22T21:41:14.986Z,96332.41
2022-12-22T21:43:42.766Z,96341.75
2022-12-22T21:46:12.700Z,96346.03
2022-12-22T21:48:40.336Z,96349.78
2022-12-22T21:51:11.883Z,96339.47
2022-12-22T21:53:39.419Z,96332.75
2022-12-22T21:56:14.225Z,96339.97
2022-12-22T21:58:41.763Z,96326.84
2022-12-22T22:01:12.277Z,96333.09
2022-12-22T22:03:39.934Z,96321.78
2022-12-22T22:06:09.092Z,96322.59
2022-12-22T22:08:36.597Z,96327.50
2022-12-22T22:11:04.155Z,96316.88
2022-12-22T22:13:31.693Z,96323.56
2022-12-22T22:15:59.270Z,96313.06
2022-12-22T22:18:26.911Z,96314.25
2022-12-22T22:20:54.421Z,96319.66
2022-12-22T22:23:23.350Z,96314.25
2022-12-22T22:25:57.616Z,96310.28
2022-12-22T22:28:25.321Z,96314.56
2022-12-22T22:30:53.231Z,96315.06
2022-12-22T22:33:20.847Z,96310.28
2022-12-22T22:35:48.541Z,96306.69
2022-12-22T22:38:17.480Z,96305.03
2022-12-22T22:40:47.777Z,96297.97
2022-12-22T22:43:16.065Z,96296.53
2022-12-22T22:45:43.848Z,96285.03
2022-12-22T22:48:19.075Z,96284.06
2022-12-22T22:50:46.734Z,96280.13
2022-12-22T22:53:14.549Z,96269.13
2022-12-22T22:55:42.066Z,96263.25
2022-12-22T22:58:11.772Z,96267.50
2022-12-22T23:00:39.807Z,96257.00
2022-12-22T23:03:07.699Z,96266.03
2022-12-22T23:05:35.359Z,96258.16
2022-12-22T23:08:02.928Z,96259.31
2022-12-22T23:10:32.716Z,96252.09
2022-12-22T23:13:03.673Z,96250.94
2022-12-22T23:15:32.523Z,96245.38
2022-12-22T23:18:00.093Z,96243.69
2022-12-22T23:20:28.641Z,96240.13
2022-12-22T23:22:59.981Z,96236.00
2022-12-22T23:25:27.534Z,96239.13
2022-12-22T23:27:55.063Z,96232.09
2022-12-22T23:30:22.596Z,96228.16
2022-12-22T23:32:51.456Z,96218.44
2022-12-22T23:35:19.017Z,96220.28
2022-12-22T23:37:46.616Z,96212.91
2022-12-22T23:43:01.802Z,96209.81
2022-12-22T23:45:29.671Z,96214.22
2022-12-22T23:47:58.592Z,96205.72
2022-12-22T23:50:27.242Z,96200.47
2022-12-22T23:52:54.878Z,96185.91
2022-12-22T23:55:23.025Z,96195.88
2022-12-22T23:57:51.194Z,96189.47
